sensor_id;sensor_type;location;lat;lon;timestamp;temperature;humidity
41628;DHT22;27321;50.816;6.054;2023-01-16T00:01:17;6.30;76.80
41628;DHT22;27321;50.816;6.054;2023-01-16T00:04:19;6.30;76.90
41628;DHT22;27321;50.816;6.054;2023-01-16T00:07:20;6.30;77.00
41628;DHT22;27321;50.816;6.054;2023-01-16T00:10:21;6.40;77.00
41628;DHT22;27321;50.816;6.054;2023-01-16T00:13:22;6.40;76.70
41628;DHT22;27321;50.816;6.054;2023-01-16T00:16:23;6.40;76.50
41628;DHT22;27321;50.816;6.054;2023-01-16T00:19:24;6.30;76.10
41628;DHT22;27321;50.816;6.054;2023-01-16T00:22:25;6.40;76.10
41628;DHT22;27321;50.816;6.054;2023-01-16T00:25:26;6.30;76.40
41628;DHT22;27321;50.816;6.054;2023-01-16T00:28:27;6.30;76.20
41628;DHT22;27321;50.816;6.054;2023-01-16T00:31:28;6.30;76.70
41628;DHT22;27321;50.816;6.054;2023-01-16T00:34:29;6.30;77.00
41628;DHT22;27321;50.816;6.054;2023-01-16T00:37:30;6.30;77.10
41628;DHT22;27321;50.816;6.054;2023-01-16T00:40:32;6.30;77.00
41628;DHT22;27321;50.816;6.054;2023-01-16T00:43:33;6.30;76.90
41628;DHT22;27321;50.816;6.054;2023-01-16T00:46:34;6.30;77.40
41628;DHT22;27321;50.816;6.054;2023-01-16T00:49:35;6.30;76.90
41628;DHT22;27321;50.816;6.054;2023-01-16T00:52:36;6.30;76.90
41628;DHT22;27321;50.816;6.054;2023-01-16T00:55:37;6.30;76.90
41628;DHT22;27321;50.816;6.054;2023-01-16T00:58:39;6.30;77.10
41628;DHT22;27321;50.816;6.054;2023-01-16T01:01:40;6.40;77.00
41628;DHT22;27321;50.816;6.054;2023-01-16T01:04:41;6.50;76.80
41628;DHT22;27321;50.816;6.054;2023-01-16T01:07:42;6.50;76.70
41628;DHT22;27321;50.816;6.054;2023-01-16T01:10:43;6.50;76.60
41628;DHT22;27321;50.816;6.054;2023-01-16T01:13:44;6.50;76.30
41628;DHT22;27321;50.816;6.054;2023-01-16T01:16:44;6.50;76.50
41628;DHT22;27321;50.816;6.054;2023-01-16T01:19:46;6.40;76.30
41628;DHT22;27321;50.816;6.054;2023-01-16T01:22:46;6.40;76.30
41628;DHT22;27321;50.816;6.054;2023-01-16T01:25:48;6.30;76.60
41628;DHT22;27321;50.816;6.054;2023-01-16T01:28:49;6.30;75.90
41628;DHT22;27321;50.816;6.054;2023-01-16T01:31:50;6.30;76.60
41628;DHT22;27321;50.816;6.054;2023-01-16T01:34:51;6.30;76.30
41628;DHT22;27321;50.816;6.054;2023-01-16T01:37:52;6.30;76.20
41628;DHT22;27321;50.816;6.054;2023-01-16T01:40:53;6.30;76.00
41628;DHT22;27321;50.816;6.054;2023-01-16T01:43:55;6.30;76.20
41628;DHT22;27321;50.816;6.054;2023-01-16T01:46:57;6.30;75.50
41628;DHT22;27321;50.816;6.054;2023-01-16T01:50:02;6.30;75.30
41628;DHT22;27321;50.816;6.054;2023-01-16T01:53:20;6.20;75.70
41628;DHT22;27321;50.816;6.054;2023-01-16T01:56:41;6.30;75.80
41628;DHT22;27321;50.816;6.054;2023-01-16T01:59:55;6.20;75.70
41628;DHT22;27321;50.816;6.054;2023-01-16T02:03:07;6.20;75.70
41628;DHT22;27321;50.816;6.054;2023-01-16T02:06:19;6.20;75.60
41628;DHT22;27321;50.816;6.054;2023-01-16T02:09:23;6.20;76.30
41628;DHT22;27321;50.816;6.054;2023-01-16T02:12:26;6.20;75.70
41628;DHT22;27321;50.816;6.054;2023-01-16T02:15:28;6.20;76.20
41628;DHT22;27321;50.816;6.054;2023-01-16T02:18:30;6.20;75.60
41628;DHT22;27321;50.816;6.054;2023-01-16T02:32:40;6.30;76.20
41628;DHT22;27321;50.816;6.054;2023-01-16T02:42:42;6.30;75.60
41628;DHT22;27321;50.816;6.054;2023-01-16T02:49:22;6.40;75.00
41628;DHT22;27321;50.816;6.054;2023-01-16T02:56:01;6.40;74.80
41628;DHT22;27321;50.816;6.054;2023-01-16T02:59:10;6.40;74.70
41628;DHT22;27321;50.816;6.054;2023-01-16T03:02:13;6.50;74.80
41628;DHT22;27321;50.816;6.054;2023-01-16T03:05:15;6.40;74.10
41628;DHT22;27321;50.816;6.054;2023-01-16T03:08:32;6.40;74.70
41628;DHT22;27321;50.816;6.054;2023-01-16T03:15:13;6.50;74.60
41628;DHT22;27321;50.816;6.054;2023-01-16T03:22:16;6.50;73.90
41628;DHT22;27321;50.816;6.054;2023-01-16T03:28:46;6.50;73.90
41628;DHT22;27321;50.816;6.054;2023-01-16T03:35:32;6.60;73.60
41628;DHT22;27321;50.816;6.054;2023-01-16T03:38:37;6.50;73.40
41628;DHT22;27321;50.816;6.054;2023-01-16T03:41:40;6.50;73.10
41628;DHT22;27321;50.816;6.054;2023-01-16T03:44:46;6.50;73.30
41628;DHT22;27321;50.816;6.054;2023-01-16T03:47:55;6.50;73.50
41628;DHT22;27321;50.816;6.054;2023-01-16T03:51:05;6.50;73.10
41628;DHT22;27321;50.816;6.054;2023-01-16T03:57:36;6.60;73.00
41628;DHT22;27321;50.816;6.054;2023-01-16T04:00:48;6.60;73.10
41628;DHT22;27321;50.816;6.054;2023-01-16T04:04:16;6.60;73.20
41628;DHT22;27321;50.816;6.054;2023-01-16T04:07:34;6.60;73.00
41628;DHT22;27321;50.816;6.054;2023-01-16T04:10:42;6.60;72.80
41628;DHT22;27321;50.816;6.054;2023-01-16T04:13:46;6.60;73.50
41628;DHT22;27321;50.816;6.054;2023-01-16T04:16:49;6.60;73.40
41628;DHT22;27321;50.816;6.054;2023-01-16T04:19:51;6.60;73.60
41628;DHT22;27321;50.816;6.054;2023-01-16T04:22:52;6.70;73.40
41628;DHT22;27321;50.816;6.054;2023-01-16T04:25:53;6.80;73.50
41628;DHT22;27321;50.816;6.054;2023-01-16T04:28:54;6.80;73.50
41628;DHT22;27321;50.816;6.054;2023-01-16T04:31:55;6.80;73.30
41628;DHT22;27321;50.816;6.054;2023-01-16T04:34:56;6.80;73.60
41628;DHT22;27321;50.816;6.054;2023-01-16T04:37:57;6.80;73.30
41628;DHT22;27321;50.816;6.054;2023-01-16T04:40:58;6.80;73.00
41628;DHT22;27321;50.816;6.054;2023-01-16T04:43:59;6.90;73.00
41628;DHT22;27321;50.816;6.054;2023-01-16T04:47:00;6.90;73.00
41628;DHT22;27321;50.816;6.054;2023-01-16T04:50:01;6.90;73.10
41628;DHT22;27321;50.816;6.054;2023-01-16T04:53:02;6.90;72.90
41628;DHT22;27321;50.816;6.054;2023-01-16T04:56:03;6.80;72.70
41628;DHT22;27321;50.816;6.054;2023-01-16T04:59:05;6.80;72.80
41628;DHT22;27321;50.816;6.054;2023-01-16T05:02:05;6.80;72.50
41628;DHT22;27321;50.816;6.054;2023-01-16T05:05:07;6.80;73.00
41628;DHT22;27321;50.816;6.054;2023-01-16T05:08:08;6.90;72.50
41628;DHT22;27321;50.816;6.054;2023-01-16T05:11:17;6.90;72.40
41628;DHT22;27321;50.816;6.054;2023-01-16T05:14:18;6.90;72.20
41628;DHT22;27321;50.816;6.054;2023-01-16T05:17:19;6.90;72.30
41628;DHT22;27321;50.816;6.054;2023-01-16T05:20:24;6.90;72.10
41628;DHT22;27321;50.816;6.054;2023-01-16T05:23:25;6.90;72.00
41628;DHT22;27321;50.816;6.054;2023-01-16T05:26:26;6.90;72.20
41628;DHT22;27321;50.816;6.054;2023-01-16T05:29:27;7.00;72.20
41628;DHT22;27321;50.816;6.054;2023-01-16T05:32:28;6.90;71.90
41628;DHT22;27321;50.816;6.054;2023-01-16T05:35:29;7.00;72.40
41628;DHT22;27321;50.816;6.054;2023-01-16T05:38:30;6.90;72.20
41628;DHT22;27321;50.816;6.054;2023-01-16T05:41:31;7.00;71.90
41628;DHT22;27321;50.816;6.054;2023-01-16T05:44:32;7.00;72.20
41628;DHT22;27321;50.816;6.054;2023-01-16T05:47:33;7.00;72.20
41628;DHT22;27321;50.816;6.054;2023-01-16T05:50:34;7.00;72.00
41628;DHT22;27321;50.816;6.054;2023-01-16T05:53:35;7.00;72.10
41628;DHT22;27321;50.816;6.054;2023-01-16T05:56:36;7.00;72.20
41628;DHT22;27321;50.816;6.054;2023-01-16T05:59:37;6.90;72.20
41628;DHT22;27321;50.816;6.054;2023-01-16T06:02:38;7.00;72.20
41628;DHT22;27321;50.816;6.054;2023-01-16T06:05:42;7.00;72.00
41628;DHT22;27321;50.816;6.054;2023-01-16T06:08:43;7.10;71.80
41628;DHT22;27321;50.816;6.054;2023-01-16T06:11:44;7.00;71.30
41628;DHT22;27321;50.816;6.054;2023-01-16T06:14:48;7.00;71.50
41628;DHT22;27321;50.816;6.054;2023-01-16T06:17:49;7.00;71.70
41628;DHT22;27321;50.816;6.054;2023-01-16T06:20:52;7.10;71.70
41628;DHT22;27321;50.816;6.054;2023-01-16T06:23:53;7.10;71.60
41628;DHT22;27321;50.816;6.054;2023-01-16T06:26:54;7.20;71.40
41628;DHT22;27321;50.816;6.054;2023-01-16T06:29:55;7.20;70.90
41628;DHT22;27321;50.816;6.054;2023-01-16T06:32:56;7.20;71.20
41628;DHT22;27321;50.816;6.054;2023-01-16T06:35:57;7.20;71.40
41628;DHT22;27321;50.816;6.054;2023-01-16T06:38:58;7.20;71.20
41628;DHT22;27321;50.816;6.054;2023-01-16T06:41:59;7.20;71.50
41628;DHT22;27321;50.816;6.054;2023-01-16T06:45:01;7.20;71.10
41628;DHT22;27321;50.816;6.054;2023-01-16T06:48:02;7.20;71.50
41628;DHT22;27321;50.816;6.054;2023-01-16T06:51:03;7.20;72.30
41628;DHT22;27321;50.816;6.054;2023-01-16T06:54:04;7.20;72.40
41628;DHT22;27321;50.816;6.054;2023-01-16T06:57:05;7.20;72.70
41628;DHT22;27321;50.816;6.054;2023-01-16T07:00:06;7.20;73.10
41628;DHT22;27321;50.816;6.054;2023-01-16T07:03:08;7.10;73.00
41628;DHT22;27321;50.816;6.054;2023-01-16T07:06:09;7.10;72.90
41628;DHT22;27321;50.816;6.054;2023-01-16T07:09:13;7.00;73.30
41628;DHT22;27321;50.816;6.054;2023-01-16T07:12:14;7.00;73.00
41628;DHT22;27321;50.816;6.054;2023-01-16T07:15:15;7.00;73.10
41628;DHT22;27321;50.816;6.054;2023-01-16T07:18:35;7.00;73.40
41628;DHT22;27321;50.816;6.054;2023-01-16T07:21:54;7.00;73.00
41628;DHT22;27321;50.816;6.054;2023-01-16T07:25:17;7.00;73.20
41628;DHT22;27321;50.816;6.054;2023-01-16T07:28:26;7.00;72.60
41628;DHT22;27321;50.816;6.054;2023-01-16T07:31:30;7.00;72.90
41628;DHT22;27321;50.816;6.054;2023-01-16T07:34:32;6.90;72.90
41628;DHT22;27321;50.816;6.054;2023-01-16T07:37:35;7.00;72.70
41628;DHT22;27321;50.816;6.054;2023-01-16T07:40:36;7.00;71.90
41628;DHT22;27321;50.816;6.054;2023-01-16T07:43:37;6.90;72.30
41628;DHT22;27321;50.816;6.054;2023-01-16T07:46:38;6.90;72.00
41628;DHT22;27321;50.816;6.054;2023-01-16T07:49:39;6.80;71.90
41628;DHT22;27321;50.816;6.054;2023-01-16T07:52:42;6.80;71.70
41628;DHT22;27321;50.816;6.054;2023-01-16T07:55:44;6.80;72.10
41628;DHT22;27321;50.816;6.054;2023-01-16T07:58:46;6.70;71.90
41628;DHT22;27321;50.816;6.054;2023-01-16T08:01:49;6.70;72.50
41628;DHT22;27321;50.816;6.054;2023-01-16T08:04:53;6.80;71.70
41628;DHT22;27321;50.816;6.054;2023-01-16T08:07:54;6.80;72.40
41628;DHT22;27321;50.816;6.054;2023-01-16T08:10:57;6.80;72.40
41628;DHT22;27321;50.816;6.054;2023-01-16T08:13:59;6.60;72.40
41628;DHT22;27321;50.816;6.054;2023-01-16T08:17:00;6.60;72.60
41628;DHT22;27321;50.816;6.054;2023-01-16T08:20:01;6.50;72.80
41628;DHT22;27321;50.816;6.054;2023-01-16T08:23:02;6.60;72.80
41628;DHT22;27321;50.816;6.054;2023-01-16T08:26:03;6.60;73.10
41628;DHT22;27321;50.816;6.054;2023-01-16T08:29:05;6.70;72.70
41628;DHT22;27321;50.816;6.054;2023-01-16T08:32:06;6.70;71.40
41628;DHT22;27321;50.816;6.054;2023-01-16T08:35:08;6.70;72.10
41628;DHT22;27321;50.816;6.054;2023-01-16T08:38:10;6.70;71.50
41628;DHT22;27321;50.816;6.054;2023-01-16T08:41:11;6.60;71.20
41628;DHT22;27321;50.816;6.054;2023-01-16T08:44:30;6.60;71.00
41628;DHT22;27321;50.816;6.054;2023-01-16T08:47:49;6.70;70.70
41628;DHT22;27321;50.816;6.054;2023-01-16T08:51:15;6.60;71.20
41628;DHT22;27321;50.816;6.054;2023-01-16T08:54:23;6.70;70.30
41628;DHT22;27321;50.816;6.054;2023-01-16T08:57:26;6.60;70.50
41628;DHT22;27321;50.816;6.054;2023-01-16T09:00:28;6.60;70.60
41628;DHT22;27321;50.816;6.054;2023-01-16T09:03:29;6.70;70.30
41628;DHT22;27321;50.816;6.054;2023-01-16T09:06:30;6.70;69.60
41628;DHT22;27321;50.816;6.054;2023-01-16T09:09:32;6.70;69.90
41628;DHT22;27321;50.816;6.054;2023-01-16T09:12:32;6.80;70.20
41628;DHT22;27321;50.816;6.054;2023-01-16T09:15:52;6.80;69.70
41628;DHT22;27321;50.816;6.054;2023-01-16T09:18:53;6.80;69.50
41628;DHT22;27321;50.816;6.054;2023-01-16T09:21:54;6.80;69.70
41628;DHT22;27321;50.816;6.054;2023-01-16T09:24:55;6.90;69.70
41628;DHT22;27321;50.816;6.054;2023-01-16T09:27:56;6.90;69.30
41628;DHT22;27321;50.816;6.054;2023-01-16T09:30:57;6.90;69.50
41628;DHT22;27321;50.816;6.054;2023-01-16T09:33:59;7.00;69.00
41628;DHT22;27321;50.816;6.054;2023-01-16T09:37:00;6.90;69.50
41628;DHT22;27321;50.816;6.054;2023-01-16T09:40:02;7.00;69.50
41628;DHT22;27321;50.816;6.054;2023-01-16T09:43:16;7.00;68.80
41628;DHT22;27321;50.816;6.054;2023-01-16T09:46:44;7.00;69.20
41628;DHT22;27321;50.816;6.054;2023-01-16T09:49:55;7.00;69.30
41628;DHT22;27321;50.816;6.054;2023-01-16T09:53:00;7.00;69.20
41628;DHT22;27321;50.816;6.054;2023-01-16T09:56:26;7.10;69.20
41628;DHT22;27321;50.816;6.054;2023-01-16T09:59:49;7.10;69.00
41628;DHT22;27321;50.816;6.054;2023-01-16T10:02:52;7.20;68.80
41628;DHT22;27321;50.816;6.054;2023-01-16T10:05:57;7.30;68.80
41628;DHT22;27321;50.816;6.054;2023-01-16T10:09:16;7.40;68.50
41628;DHT22;27321;50.816;6.054;2023-01-16T10:12:37;7.40;68.80
41628;DHT22;27321;50.816;6.054;2023-01-16T10:15:58;7.50;69.10
41628;DHT22;27321;50.816;6.054;2023-01-16T10:22:59;7.60;68.80
41628;DHT22;27321;50.816;6.054;2023-01-16T10:26:20;7.60;68.40
41628;DHT22;27321;50.816;6.054;2023-01-16T10:36:24;7.80;68.50
41628;DHT22;27321;50.816;6.054;2023-01-16T10:39:33;7.80;68.50
41628;DHT22;27321;50.816;6.054;2023-01-16T10:42:35;7.80;68.00
41628;DHT22;27321;50.816;6.054;2023-01-16T10:45:57;8.00;68.40
41628;DHT22;27321;50.816;6.054;2023-01-16T10:49:23;8.00;67.50
41628;DHT22;27321;50.816;6.054;2023-01-16T10:52:28;8.00;67.70
41628;DHT22;27321;50.816;6.054;2023-01-16T10:55:30;8.00;67.60
41628;DHT22;27321;50.816;6.054;2023-01-16T10:58:35;7.90;67.90
41628;DHT22;27321;50.816;6.054;2023-01-16T11:01:39;7.80;67.90
41628;DHT22;27321;50.816;6.054;2023-01-16T11:04:42;7.80;67.60
41628;DHT22;27321;50.816;6.054;2023-01-16T11:07:43;7.70;67.80
41628;DHT22;27321;50.816;6.054;2023-01-16T11:10:46;7.70;68.20
41628;DHT22;27321;50.816;6.054;2023-01-16T11:13:48;7.80;68.20
41628;DHT22;27321;50.816;6.054;2023-01-16T11:21:14;8.00;68.30
41628;DHT22;27321;50.816;6.054;2023-01-16T11:24:23;8.20;68.10
41628;DHT22;27321;50.816;6.054;2023-01-16T11:27:33;8.20;67.70
41628;DHT22;27321;50.816;6.054;2023-01-16T11:30:42;8.30;67.50
41628;DHT22;27321;50.816;6.054;2023-01-16T11:34:03;8.40;67.10
41628;DHT22;27321;50.816;6.054;2023-01-16T11:37:13;8.40;66.50
41628;DHT22;27321;50.816;6.054;2023-01-16T11:40:23;8.40;66.90
41628;DHT22;27321;50.816;6.054;2023-01-16T11:43:26;8.50;67.50
41628;DHT22;27321;50.816;6.054;2023-01-16T11:46:49;8.50;67.50
41628;DHT22;27321;50.816;6.054;2023-01-16T11:49:52;8.50;67.70
41628;DHT22;27321;50.816;6.054;2023-01-16T11:52:53;8.50;67.30
41628;DHT22;27321;50.816;6.054;2023-01-16T12:03:45;8.70;66.40
41628;DHT22;27321;50.816;6.054;2023-01-16T12:07:09;8.70;66.60
41628;DHT22;27321;50.816;6.054;2023-01-16T12:14:37;8.60;66.00
41628;DHT22;27321;50.816;6.054;2023-01-16T12:28:50;8.30;69.00
41628;DHT22;27321;50.816;6.054;2023-01-16T12:35:57;8.00;70.00
41628;DHT22;27321;50.816;6.054;2023-01-16T12:39:23;8.00;70.90
41628;DHT22;27321;50.816;6.054;2023-01-16T12:46:57;8.00;70.40
41628;DHT22;27321;50.816;6.054;2023-01-16T12:50:22;8.10;70.00
41628;DHT22;27321;50.816;6.054;2023-01-16T12:58:05;8.20;69.40
41628;DHT22;27321;50.816;6.054;2023-01-16T13:01:24;8.10;68.80
41628;DHT22;27321;50.816;6.054;2023-01-16T13:04:33;8.10;69.60
41628;DHT22;27321;50.816;6.054;2023-01-16T13:11:26;8.10;69.00
41628;DHT22;27321;50.816;6.054;2023-01-16T13:14:52;8.10;68.90
41628;DHT22;27321;50.816;6.054;2023-01-16T13:18:03;8.10;68.40
41628;DHT22;27321;50.816;6.054;2023-01-16T13:21:14;8.10;68.70
41628;DHT22;27321;50.816;6.054;2023-01-16T13:24:26;8.10;68.80
41628;DHT22;27321;50.816;6.054;2023-01-16T13:27:46;8.20;68.40
41628;DHT22;27321;50.816;6.054;2023-01-16T13:30:57;8.20;68.70
41628;DHT22;27321;50.816;6.054;2023-01-16T13:41:23;8.20;67.80
41628;DHT22;27321;50.816;6.054;2023-01-16T13:44:29;8.30;67.90
41628;DHT22;27321;50.816;6.054;2023-01-16T13:47:57;8.20;68.50
41628;DHT22;27321;50.816;6.054;2023-01-16T13:51:00;8.30;69.10
41628;DHT22;27321;50.816;6.054;2023-01-16T13:54:02;8.30;69.40
41628;DHT22;27321;50.816;6.054;2023-01-16T13:57:25;8.20;70.00
41628;DHT22;27321;50.816;6.054;2023-01-16T14:00:28;8.10;70.70
41628;DHT22;27321;50.816;6.054;2023-01-16T14:03:33;8.00;71.20
41628;DHT22;27321;50.816;6.054;2023-01-16T14:06:43;8.00;71.70
41628;DHT22;27321;50.816;6.054;2023-01-16T14:10:24;8.00;71.60
41628;DHT22;27321;50.816;6.054;2023-01-16T14:13:37;8.10;71.90
41628;DHT22;27321;50.816;6.054;2023-01-16T14:16:40;8.10;71.70
41628;DHT22;27321;50.816;6.054;2023-01-16T14:20:01;8.00;71.80
41628;DHT22;27321;50.816;6.054;2023-01-16T14:23:17;8.00;72.00
41628;DHT22;27321;50.816;6.054;2023-01-16T14:26:57;8.10;72.30
41628;DHT22;27321;50.816;6.054;2023-01-16T14:30:14;8.00;72.10
41628;DHT22;27321;50.816;6.054;2023-01-16T14:33:18;8.00;72.00
41628;DHT22;27321;50.816;6.054;2023-01-16T14:36:23;8.10;72.30
41628;DHT22;27321;50.816;6.054;2023-01-16T14:39:28;8.10;72.20
41628;DHT22;27321;50.816;6.054;2023-01-16T14:42:40;8.10;71.60
41628;DHT22;27321;50.816;6.054;2023-01-16T14:50:14;8.10;72.40
41628;DHT22;27321;50.816;6.054;2023-01-16T14:53:28;8.10;72.30
41628;DHT22;27321;50.816;6.054;2023-01-16T14:56:59;8.20;72.00
41628;DHT22;27321;50.816;6.054;2023-01-16T15:00:10;8.20;71.90
41628;DHT22;27321;50.816;6.054;2023-01-16T15:03:26;8.20;72.00
41628;DHT22;27321;50.816;6.054;2023-01-16T15:06:39;8.20;71.90
41628;DHT22;27321;50.816;6.054;2023-01-16T15:09:46;8.20;71.90
41628;DHT22;27321;50.816;6.054;2023-01-16T15:12:48;8.20;72.00
41628;DHT22;27321;50.816;6.054;2023-01-16T15:16:01;8.30;72.00
41628;DHT22;27321;50.816;6.054;2023-01-16T15:19:04;8.30;71.70
41628;DHT22;27321;50.816;6.054;2023-01-16T15:22:46;8.20;71.10
41628;DHT22;27321;50.816;6.054;2023-01-16T15:32:56;7.90;71.70
41628;DHT22;27321;50.816;6.054;2023-01-16T15:36:32;7.80;71.70
41628;DHT22;27321;50.816;6.054;2023-01-16T15:39:41;7.80;72.60
41628;DHT22;27321;50.816;6.054;2023-01-16T15:42:46;7.70;73.10
41628;DHT22;27321;50.816;6.054;2023-01-16T15:46:18;7.80;73.20
41628;DHT22;27321;50.816;6.054;2023-01-16T15:53:07;7.70;72.10
41628;DHT22;27321;50.816;6.054;2023-01-16T15:56:38;7.60;73.10
41628;DHT22;27321;50.816;6.054;2023-01-16T15:59:55;7.60;72.80
41628;DHT22;27321;50.816;6.054;2023-01-16T16:06:12;7.60;73.80
41628;DHT22;27321;50.816;6.054;2023-01-16T16:09:18;7.60;73.60
41628;DHT22;27321;50.816;6.054;2023-01-16T16:12:21;7.60;73.50
41628;DHT22;27321;50.816;6.054;2023-01-16T16:15:23;7.60;72.80
41628;DHT22;27321;50.816;6.054;2023-01-16T16:18:57;7.40;73.20
41628;DHT22;27321;50.816;6.054;2023-01-16T16:22:08;7.40;73.70
41628;DHT22;27321;50.816;6.054;2023-01-16T16:28:38;7.40;73.90
41628;DHT22;27321;50.816;6.054;2023-01-16T16:31:39;7.30;74.00
41628;DHT22;27321;50.816;6.054;2023-01-16T16:34:53;7.40;73.90
41628;DHT22;27321;50.816;6.054;2023-01-16T16:37:56;7.40;73.80
41628;DHT22;27321;50.816;6.054;2023-01-16T16:44:08;7.40;73.80
41628;DHT22;27321;50.816;6.054;2023-01-16T16:47:23;7.40;73.30
41628;DHT22;27321;50.816;6.054;2023-01-16T16:50:36;7.30;73.40
41628;DHT22;27321;50.816;6.054;2023-01-16T16:53:44;7.30;73.60
41628;DHT22;27321;50.816;6.054;2023-01-16T16:56:48;7.30;74.10
41628;DHT22;27321;50.816;6.054;2023-01-16T16:59:53;7.30;74.20
41628;DHT22;27321;50.816;6.054;2023-01-16T17:03:04;7.30;74.40
41628;DHT22;27321;50.816;6.054;2023-01-16T17:06:14;7.20;74.80
41628;DHT22;27321;50.816;6.054;2023-01-16T17:09:18;7.20;75.00
41628;DHT22;27321;50.816;6.054;2023-01-16T17:12:19;7.30;74.90
41628;DHT22;27321;50.816;6.054;2023-01-16T17:15:23;7.20;75.00
41628;DHT22;27321;50.816;6.054;2023-01-16T17:18:25;7.20;75.60
41628;DHT22;27321;50.816;6.054;2023-01-16T17:21:27;7.20;75.40
41628;DHT22;27321;50.816;6.054;2023-01-16T17:24:28;7.20;75.90
41628;DHT22;27321;50.816;6.054;2023-01-16T17:27:30;7.20;75.80
41628;DHT22;27321;50.816;6.054;2023-01-16T17:30:31;7.20;75.90
41628;DHT22;27321;50.816;6.054;2023-01-16T17:33:32;7.30;75.80
41628;DHT22;27321;50.816;6.054;2023-01-16T17:36:33;7.20;75.90
41628;DHT22;27321;50.816;6.054;2023-01-16T17:39:35;7.10;75.90
41628;DHT22;27321;50.816;6.054;2023-01-16T17:42:36;7.00;76.10
41628;DHT22;27321;50.816;6.054;2023-01-16T17:45:56;6.90;76.40
41628;DHT22;27321;50.816;6.054;2023-01-16T17:48:57;6.80;76.90
41628;DHT22;27321;50.816;6.054;2023-01-16T17:51:58;6.80;77.30
41628;DHT22;27321;50.816;6.054;2023-01-16T17:54:59;6.80;77.20
41628;DHT22;27321;50.816;6.054;2023-01-16T18:01:46;6.80;77.60
41628;DHT22;27321;50.816;6.054;2023-01-16T18:04:47;6.80;78.10
41628;DHT22;27321;50.816;6.054;2023-01-16T18:07:50;6.70;78.00
41628;DHT22;27321;50.816;6.054;2023-01-16T18:10:51;6.60;78.40
41628;DHT22;27321;50.816;6.054;2023-01-16T18:13:52;6.60;78.40
41628;DHT22;27321;50.816;6.054;2023-01-16T18:17:14;6.50;78.30
41628;DHT22;27321;50.816;6.054;2023-01-16T18:20:24;6.40;78.40
41628;DHT22;27321;50.816;6.054;2023-01-16T18:23:25;6.20;78.50
41628;DHT22;27321;50.816;6.054;2023-01-16T18:26:26;6.10;79.20
41628;DHT22;27321;50.816;6.054;2023-01-16T18:29:28;6.00;79.00
41628;DHT22;27321;50.816;6.054;2023-01-16T18:32:30;5.90;79.20
41628;DHT22;27321;50.816;6.054;2023-01-16T18:35:34;5.80;80.00
41628;DHT22;27321;50.816;6.054;2023-01-16T18:38:36;5.70;80.20
41628;DHT22;27321;50.816;6.054;2023-01-16T18:42:00;5.70;80.30
41628;DHT22;27321;50.816;6.054;2023-01-16T18:45:20;5.70;79.40
41628;DHT22;27321;50.816;6.054;2023-01-16T18:48:39;5.60;79.00
41628;DHT22;27321;50.816;6.054;2023-01-16T18:51:59;5.40;80.20
41628;DHT22;27321;50.816;6.054;2023-01-16T18:55:19;5.30;80.60
41628;DHT22;27321;50.816;6.054;2023-01-16T18:58:39;5.30;80.50
41628;DHT22;27321;50.816;6.054;2023-01-16T19:05:19;5.20;81.20
41628;DHT22;27321;50.816;6.054;2023-01-16T19:08:20;5.20;81.10
41628;DHT22;27321;50.816;6.054;2023-01-16T19:11:24;5.10;80.70
41628;DHT22;27321;50.816;6.054;2023-01-16T19:14:26;5.10;81.60
41628;DHT22;27321;50.816;6.054;2023-01-16T19:17:29;5.00;81.20
41628;DHT22;27321;50.816;6.054;2023-01-16T19:20:30;5.10;82.00
41628;DHT22;27321;50.816;6.054;2023-01-16T19:23:31;5.10;82.30
41628;DHT22;27321;50.816;6.054;2023-01-16T19:26:34;5.20;82.50
41628;DHT22;27321;50.816;6.054;2023-01-16T19:29:36;5.20;82.20
41628;DHT22;27321;50.816;6.054;2023-01-16T19:32:38;5.30;82.20
41628;DHT22;27321;50.816;6.054;2023-01-16T19:35:42;5.30;81.70
41628;DHT22;27321;50.816;6.054;2023-01-16T19:38:43;5.30;81.60
41628;DHT22;27321;50.816;6.054;2023-01-16T19:41:44;5.30;81.90
41628;DHT22;27321;50.816;6.054;2023-01-16T19:45:04;5.20;81.80
41628;DHT22;27321;50.816;6.054;2023-01-16T19:48:24;5.30;81.40
41628;DHT22;27321;50.816;6.054;2023-01-16T19:51:26;5.20;82.10
41628;DHT22;27321;50.816;6.054;2023-01-16T19:54:28;5.30;81.80
41628;DHT22;27321;50.816;6.054;2023-01-16T19:57:30;5.30;81.70
41628;DHT22;27321;50.816;6.054;2023-01-16T20:00:31;5.40;80.80
41628;DHT22;27321;50.816;6.054;2023-01-16T20:03:31;5.30;81.50
41628;DHT22;27321;50.816;6.054;2023-01-16T20:06:33;5.30;81.20
41628;DHT22;27321;50.816;6.054;2023-01-16T20:09:35;5.30;80.80
41628;DHT22;27321;50.816;6.054;2023-01-16T20:12:36;5.20;82.20
41628;DHT22;27321;50.816;6.054;2023-01-16T20:15:37;5.20;81.90
41628;DHT22;27321;50.816;6.054;2023-01-16T20:18:39;5.20;82.00
41628;DHT22;27321;50.816;6.054;2023-01-16T20:21:41;5.30;82.00
41628;DHT22;27321;50.816;6.054;2023-01-16T20:24:42;5.30;81.70
41628;DHT22;27321;50.816;6.054;2023-01-16T20:27:43;5.30;81.00
41628;DHT22;27321;50.816;6.054;2023-01-16T20:30:44;5.20;81.30
41628;DHT22;27321;50.816;6.054;2023-01-16T20:33:45;5.20;81.20
41628;DHT22;27321;50.816;6.054;2023-01-16T20:36:46;5.10;81.40
41628;DHT22;27321;50.816;6.054;2023-01-16T20:39:50;5.00;81.40
41628;DHT22;27321;50.816;6.054;2023-01-16T20:42:52;4.90;81.30
41628;DHT22;27321;50.816;6.054;2023-01-16T20:46:14;4.90;81.30
41628;DHT22;27321;50.816;6.054;2023-01-16T20:49:16;4.90;81.00
41628;DHT22;27321;50.816;6.054;2023-01-16T20:52:18;4.90;80.40
41628;DHT22;27321;50.816;6.054;2023-01-16T20:55:19;4.80;81.00
41628;DHT22;27321;50.816;6.054;2023-01-16T20:58:20;4.80;80.70
41628;DHT22;27321;50.816;6.054;2023-01-16T21:01:21;4.70;80.40
41628;DHT22;27321;50.816;6.054;2023-01-16T21:04:24;4.60;80.60
41628;DHT22;27321;50.816;6.054;2023-01-16T21:07:26;4.50;80.10
41628;DHT22;27321;50.816;6.054;2023-01-16T21:10:32;4.50;80.40
41628;DHT22;27321;50.816;6.054;2023-01-16T21:13:33;4.50;81.00
41628;DHT22;27321;50.816;6.054;2023-01-16T21:16:58;4.50;81.00
41628;DHT22;27321;50.816;6.054;2023-01-16T21:20:18;4.50;81.30
41628;DHT22;27321;50.816;6.054;2023-01-16T21:23:38;4.60;81.00
41628;DHT22;27321;50.816;6.054;2023-01-16T21:26:39;4.60;80.90
41628;DHT22;27321;50.816;6.054;2023-01-16T21:29:43;4.80;80.60
41628;DHT22;27321;50.816;6.054;2023-01-16T21:32:45;4.70;80.50
41628;DHT22;27321;50.816;6.054;2023-01-16T21:35:47;4.70;80.10
41628;DHT22;27321;50.816;6.054;2023-01-16T21:38:48;4.80;80.40
41628;DHT22;27321;50.816;6.054;2023-01-16T21:41:49;4.80;80.60
41628;DHT22;27321;50.816;6.054;2023-01-16T21:45:11;4.80;81.20
41628;DHT22;27321;50.816;6.054;2023-01-16T21:48:31;4.80;80.90
41628;DHT22;27321;50.816;6.054;2023-01-16T21:51:32;4.80;81.30
41628;DHT22;27321;50.816;6.054;2023-01-16T21:54:33;4.80;81.30
41628;DHT22;27321;50.816;6.054;2023-01-16T21:57:35;4.80;81.10
41628;DHT22;27321;50.816;6.054;2023-01-16T22:00:37;4.80;81.00
41628;DHT22;27321;50.816;6.054;2023-01-16T22:03:38;4.80;80.80
41628;DHT22;27321;50.816;6.054;2023-01-16T22:06:39;4.70;81.30
41628;DHT22;27321;50.816;6.054;2023-01-16T22:09:41;4.70;80.90
41628;DHT22;27321;50.816;6.054;2023-01-16T22:12:42;4.70;80.60